Time;durP1;ratioP1;P1;durP2;ratioP2;P2;SDS_P1;SDS_P2;PMS_P1;PMS_P2;Temp;Humidity;BMP_temperature;BMP_pressure;BME280_temperature;BME280_humidity;BME280_pressure;Samples;Min_cycle;Max_cycle;Signal;HPM_P1;HPM_P2
2021/12/24 00:01:06;;;;;;;;;;;;;;;6.93;81.17;100459.09;5048274;28;19920;-61
2021/12/24 00:03:32;;;;;;;;;;;;;;;6.94;80.06;100444.22;5050587;28;19921;-61
2021/12/24 00:05:57;;;;;;;;;;;;;;;6.96;81.78;100447.59;5050193;28;19944;-61
2021/12/24 00:08:22;;;;;;;;;;;;;;;6.97;82.79;100448.44;5051842;28;19964;-61
2021/12/24 00:10:58;;;;;;;;;;;;;;;6.97;82.79;100452.03;5052023;28;19978;-61
2021/12/24 00:13:23;;;;;;;;;;;;;;;6.97;81.65;100438.22;5051471;28;19924;-61
2021/12/24 00:15:57;;;;;;;;;;;;;;;6.98;81.30;100445.41;5042582;28;20340;-61
2021/12/24 00:37:02;;;;;;;;;;;;;;;7.11;81.15;100430.53;5054897;28;19928;-61
2021/12/24 00:39:28;;;;;;;;;;;;;;;7.12;82.47;100427.56;5055554;28;20276;-61
2021/12/24 00:41:53;;;;;;;;;;;;;;;7.12;82.78;100424.78;5055901;28;20372;-61
2021/12/24 00:44:18;;;;;;;;;;;;;;;7.12;82.33;100419.28;5053502;28;20340;-61
2021/12/24 00:46:43;;;;;;;;;;;;;;;7.14;81.56;100417.09;5055631;28;19921;-61
2021/12/24 00:49:09;;;;;;;;;;;;;;;7.15;81.64;100412.41;5055541;28;19968;-61
2021/12/24 00:51:56;;;;;;;;;;;;;;;7.17;81.88;100420.47;5049830;28;19921;-61
2021/12/24 00:57:05;;;;;;;;;;;;;;;7.19;82.16;100408.13;5054438;28;19943;-61
2021/12/24 00:59:30;;;;;;;;;;;;;;;7.21;81.78;100405.09;5054464;28;20361;-61
2021/12/24 01:01:56;;;;;;;;;;;;;;;7.23;81.83;100413.97;5055020;28;20062;-61
2021/12/24 01:04:21;;;;;;;;;;;;;;;7.23;81.90;100417.59;5054558;28;19986;-61
2021/12/24 01:06:46;;;;;;;;;;;;;;;7.25;81.63;100412.66;5050401;28;19917;-61
2021/12/24 01:09:11;;;;;;;;;;;;;;;7.27;81.23;100412.41;5053993;28;19920;-61
2021/12/24 01:11:37;;;;;;;;;;;;;;;7.30;81.59;100406.41;5051125;28;20392;-61
2021/12/24 01:14:02;;;;;;;;;;;;;;;7.31;81.01;100408.06;5052509;28;19928;-61
2021/12/24 01:16:58;;;;;;;;;;;;;;;7.32;81.20;100405.09;5052682;28;20347;-61
2021/12/24 01:19:21;;;;;;;;;;;;;;;7.34;81.02;100405.66;5052244;28;20352;-61
2021/12/24 01:24:27;;;;;;;;;;;;;;;7.36;81.86;100403.53;5049050;28;20011;-61
2021/12/24 01:40:39;;;;;;;;;;;;;;;7.47;81.85;100404.59;5005896;28;19933;-61
2021/12/24 01:43:06;;;;;;;;;;;;;;;7.49;81.88;100407.94;5014042;28;20674;-61
2021/12/24 01:45:33;;;;;;;;;;;;;;;7.52;81.94;100401.91;5025157;28;19932;-61
2021/12/24 01:48:00;;;;;;;;;;;;;;;7.53;82.03;100395.31;5050303;28;19974;-61
2021/12/24 01:50:27;;;;;;;;;;;;;;;7.54;82.02;100402.50;5054488;28;19921;-61
2021/12/24 01:52:54;;;;;;;;;;;;;;;7.57;81.98;100403.94;5054737;28;19952;-61
2021/12/24 01:55:19;;;;;;;;;;;;;;;7.59;82.32;100401.78;5050429;28;19929;-61
2021/12/24 01:57:45;;;;;;;;;;;;;;;7.61;81.65;100405.97;5054130;28;19927;-62
2021/12/24 02:00:12;;;;;;;;;;;;;;;7.63;81.82;100403.81;5054260;28;20311;-61
2021/12/24 02:02:37;;;;;;;;;;;;;;;7.65;82.55;100391.69;5029628;28;19925;-62
2021/12/24 02:05:03;;;;;;;;;;;;;;;7.66;82.06;100405.22;5035609;28;19924;-62
2021/12/24 02:07:28;;;;;;;;;;;;;;;7.69;82.13;100398.38;5034475;28;19921;-61
2021/12/24 02:09:53;;;;;;;;;;;;;;;7.70;82.31;100397.28;5041379;28;19925;-61
2021/12/24 02:12:18;;;;;;;;;;;;;;;7.72;82.63;100407.03;5030092;28;19924;-61
2021/12/24 02:14:49;;;;;;;;;;;;;;;7.72;82.00;100403.44;5042212;28;20067;-61
2021/12/24 02:30:39;;;;;;;;;;;;;;;7.80;83.46;100400.28;5043468;28;19975;-61
2021/12/24 02:33:05;;;;;;;;;;;;;;;7.81;83.40;100396.41;5050805;28;19921;-62
2021/12/24 02:35:31;;;;;;;;;;;;;;;7.82;82.97;100392.56;5045924;28;20396;-61
2021/12/24 02:37:57;;;;;;;;;;;;;;;7.82;83.38;100398.94;5040857;28;20007;-61
2021/12/24 02:40:22;;;;;;;;;;;;;;;7.84;83.46;100384.88;5037454;28;19924;-61
2021/12/24 02:42:52;;;;;;;;;;;;;;;7.84;82.46;100388.47;5033227;28;19971;-61
2021/12/24 02:45:18;;;;;;;;;;;;;;;7.85;82.61;100384.63;5034241;28;20292;-63
2021/12/24 02:55:54;;;;;;;;;;;;;;;7.91;82.73;100371.75;5049671;28;19927;-61
2021/12/24 02:58:20;;;;;;;;;;;;;;;7.92;83.22;100370.66;5035913;28;19921;-61
2021/12/24 03:00:45;;;;;;;;;;;;;;;7.94;83.46;100387.00;5047078;28;19932;-62
2021/12/24 03:03:10;;;;;;;;;;;;;;;7.95;82.55;100374.88;5052524;28;20015;-62
2021/12/24 03:05:36;;;;;;;;;;;;;;;7.96;82.95;100380.13;5052259;28;19925;-61
2021/12/24 03:08:01;;;;;;;;;;;;;;;7.98;82.33;100377.97;5053171;28;19923;-61
2021/12/24 03:10:27;;;;;;;;;;;;;;;8.00;82.61;100380.47;5051839;28;19920;-61
2021/12/24 03:12:52;;;;;;;;;;;;;;;8.00;84.14;100380.47;5051799;28;19928;-61
2021/12/24 03:15:18;;;;;;;;;;;;;;;7.99;83.33;100379.66;5048540;28;19929;-61
2021/12/24 03:17:48;;;;;;;;;;;;;;;8.01;82.78;100373.84;5049326;28;19971;-62
2021/12/24 03:20:14;;;;;;;;;;;;;;;8.02;81.99;100383.84;5051700;28;19921;-62
2021/12/24 03:25:16;;;;;;;;;;;;;;;8.04;82.17;100376.97;5052331;28;19924;-61
2021/12/24 03:27:42;;;;;;;;;;;;;;;8.06;82.61;100382.28;5051947;28;20443;-61
2021/12/24 03:30:07;;;;;;;;;;;;;;;8.07;83.05;100378.41;5053040;28;19925;-61
2021/12/24 03:32:32;;;;;;;;;;;;;;;8.07;83.44;100390.31;5048326;28;20374;-61
2021/12/24 03:34:58;;;;;;;;;;;;;;;8.07;83.35;100390.31;5049403;28;19956;-62
2021/12/24 03:37:23;;;;;;;;;;;;;;;8.07;83.85;100395.81;5051422;28;19920;-61
2021/12/24 03:39:48;;;;;;;;;;;;;;;8.09;82.51;100396.41;5052661;28;19920;-61
2021/12/24 03:42:13;;;;;;;;;;;;;;;8.10;83.02;100398.09;5051498;28;19921;-62
2021/12/24 03:44:44;;;;;;;;;;;;;;;8.11;82.84;100401.69;5052950;28;19975;-61
2021/12/24 03:47:13;;;;;;;;;;;;;;;8.13;82.49;100399.50;5050837;28;20342;-60
2021/12/24 03:54:59;;;;;;;;;;;;;;;8.17;83.60;100403.47;5050149;28;19921;-61
2021/12/24 03:57:28;;;;;;;;;;;;;;;8.19;82.05;100400.47;5049047;28;20432;-61
2021/12/24 03:59:55;;;;;;;;;;;;;;;8.20;83.52;100402.13;5053002;28;19924;-61
2021/12/24 04:02:20;;;;;;;;;;;;;;;8.20;82.42;100396.59;5054643;28;20288;-61
2021/12/24 04:04:45;;;;;;;;;;;;;;;8.21;83.32;100398.28;5056376;28;19929;-61
2021/12/24 04:07:11;;;;;;;;;;;;;;;8.23;83.33;100390.59;5052714;28;19921;-60
2021/12/24 04:09:38;;;;;;;;;;;;;;;8.24;82.94;100395.03;5043253;28;19975;-61
2021/12/24 04:12:03;;;;;;;;;;;;;;;8.25;82.90;100396.69;5055315;28;20748;-61
2021/12/24 04:14:29;;;;;;;;;;;;;;;8.25;82.86;100391.16;5055351;28;19920;-61
2021/12/24 04:16:54;;;;;;;;;;;;;;;8.27;83.62;100397.28;5055466;28;19921;-61
2021/12/24 04:24:50;;;;;;;;;;;;;;;8.27;82.55;100394.53;5055413;28;20188;-62
2021/12/24 04:24:56;;;;;;;;;;;;;;;8.30;82.73;100400.41;5048875;28;19928;-61
2021/12/24 04:27:23;;;;;;;;;;;;;;;8.30;82.58;100394.88;5044485;28;19921;-60
2021/12/24 04:29:48;;;;;;;;;;;;;;;8.31;82.67;100387.41;5053565;28;19928;-60
2021/12/24 04:32:19;;;;;;;;;;;;;;;8.32;83.31;100389.06;5054903;28;19920;-63
2021/12/24 04:34:47;;;;;;;;;;;;;;;8.32;82.74;100400.97;5056126;28;20277;-61
2021/12/24 04:37:56;;;;;;;;;;;;;;;8.34;83.11;100403.50;5053976;28;19920;-61
2021/12/24 05:04:36;;;;;;;;;;;;;;;8.38;82.51;100393.66;5053254;28;20368;-63
2021/12/24 05:07:20;;;;;;;;;;;;;;;8.40;82.23;100393.41;5054027;28;19929;-60
2021/12/24 05:09:45;;;;;;;;;;;;;;;8.41;81.60;100386.75;5054522;28;19921;-61
2021/12/24 05:12:10;;;;;;;;;;;;;;;8.42;81.93;100394.00;5052458;28;19921;-61
2021/12/24 05:14:35;;;;;;;;;;;;;;;8.42;82.41;100403.13;5053229;28;20702;-60
2021/12/24 05:17:20;;;;;;;;;;;;;;;8.43;82.42;100395.66;5046277;28;19960;-61
2021/12/24 05:22:30;;;;;;;;;;;;;;;8.43;81.65;100406.72;5040627;28;20382;-60
2021/12/24 05:24:56;;;;;;;;;;;;;;;8.43;82.03;100406.72;5053073;28;20012;-61
2021/12/24 05:27:21;;;;;;;;;;;;;;;8.44;81.81;100409.22;5053445;28;20003;-61
2021/12/24 05:29:47;;;;;;;;;;;;;;;8.44;81.58;100420.28;5055178;28;19927;-60
2021/12/24 05:32:12;;;;;;;;;;;;;;;8.45;81.13;100412.84;5054104;28;20009;-61
2021/12/24 05:34:37;;;;;;;;;;;;;;;8.47;81.97;100413.44;5052042;28;20323;-61
2021/12/24 05:37:02;;;;;;;;;;;;;;;8.47;81.45;100408.75;5054117;28;20291;-60
2021/12/24 05:39:28;;;;;;;;;;;;;;;8.46;81.93;100406.25;5053301;28;20431;-61
2021/12/24 05:41:54;;;;;;;;;;;;;;;8.46;81.21;100411.78;5052155;28;19943;-60
2021/12/24 05:44:19;;;;;;;;;;;;;;;8.45;82.23;100410.06;5053310;28;20356;-60
2021/12/24 05:46:45;;;;;;;;;;;;;;;8.45;81.60;100410.94;5052731;28;19921;-60
2021/12/24 05:49:11;;;;;;;;;;;;;;;8.46;81.88;100420.91;5053643;28;20046;-60
2021/12/24 05:51:36;;;;;;;;;;;;;;;8.47;82.00;100428.09;5051912;28;19929;-61
2021/12/24 05:54:05;;;;;;;;;;;;;;;8.46;81.61;100414.53;5049582;28;20395;-60
2021/12/24 05:56:30;;;;;;;;;;;;;;;8.45;81.49;100419.22;5051961;28;19921;-60
2021/12/24 05:58:55;;;;;;;;;;;;;;;8.46;81.67;100422.84;5050221;28;19948;-61
2021/12/24 06:01:21;;;;;;;;;;;;;;;8.45;81.83;100422.00;5051025;28;20320;-60
2021/12/24 06:03:47;;;;;;;;;;;;;;;8.46;82.10;100429.19;5053041;28;19921;-59
2021/12/24 06:06:12;;;;;;;;;;;;;;;8.47;81.66;100424.50;5052643;28;20012;-61
2021/12/24 06:08:37;;;;;;;;;;;;;;;8.47;80.95;100430.88;5051696;28;19960;-60
2021/12/24 06:11:02;;;;;;;;;;;;;;;8.47;80.65;100414.28;5047243;28;20285;-60
2021/12/24 06:13:29;;;;;;;;;;;;;;;8.48;81.58;100431.69;5053519;28;19928;-60
2021/12/24 06:15:54;;;;;;;;;;;;;;;8.48;80.45;100423.41;5050582;28;19921;-60
2021/12/24 06:18:25;;;;;;;;;;;;;;;8.49;80.99;100419.53;5052123;28;19923;-61
2021/12/24 06:20:52;;;;;;;;;;;;;;;8.49;81.71;100414.00;5050546;28;20291;-60
2021/12/24 06:23:19;;;;;;;;;;;;;;;8.48;81.26;100418.72;5052213;28;19924;-60
2021/12/24 06:25:45;;;;;;;;;;;;;;;8.49;81.18;100434.25;5041410;28;19920;-61
2021/12/24 06:28:10;;;;;;;;;;;;;;;8.49;81.43;100417.63;5047186;28;19924;-60
2021/12/24 06:30:37;;;;;;;;;;;;;;;8.48;81.14;100418.72;5050946;28;19921;-60
2021/12/24 06:33:03;;;;;;;;;;;;;;;8.47;80.96;100428.09;5049836;28;19928;-60
2021/12/24 06:35:28;;;;;;;;;;;;;;;8.48;81.02;100415.94;5044286;28;20342;-59
2021/12/24 06:37:54;;;;;;;;;;;;;;;8.49;80.75;100411.25;5050591;28;19928;-60
2021/12/24 06:40:19;;;;;;;;;;;;;;;8.50;80.97;100413.78;5050866;28;19951;-59
2021/12/24 06:42:44;;;;;;;;;;;;;;;8.52;81.26;100419.88;5051174;28;19921;-59
2021/12/24 06:45:12;;;;;;;;;;;;;;;8.51;81.60;100418.22;5049876;28;19979;-60
2021/12/24 06:47:38;;;;;;;;;;;;;;;8.51;81.17;100428.44;5051565;28;20364;-61
2021/12/24 06:50:04;;;;;;;;;;;;;;;8.51;80.71;100431.22;5051315;28;19973;-60
2021/12/24 06:52:29;;;;;;;;;;;;;;;8.53;80.28;100435.41;5052460;28;20012;-60
2021/12/24 06:54:55;;;;;;;;;;;;;;;8.56;80.81;100432.13;5046152;28;20015;-60
2021/12/24 06:57:20;;;;;;;;;;;;;;;8.56;80.35;100431.28;5046775;28;20008;-60
2021/12/24 06:59:46;;;;;;;;;;;;;;;8.57;80.53;100424.69;5050618;28;19925;-60
2021/12/24 07:02:11;;;;;;;;;;;;;;;8.59;80.41;100422.50;5049003;28;20003;-60
2021/12/24 07:04:36;;;;;;;;;;;;;;;8.59;80.51;100428.88;5048172;28;20007;-60
2021/12/24 07:07:01;;;;;;;;;;;;;;;8.59;79.95;100425.25;5047962;28;19921;-60
2021/12/24 07:09:27;;;;;;;;;;;;;;;8.61;80.33;100425.88;5048151;28;19920;-59
2021/12/24 07:11:52;;;;;;;;;;;;;;;8.61;80.32;100420.34;5048882;28;19921;-60
2021/12/24 07:14:17;;;;;;;;;;;;;;;8.62;80.30;100416.47;5046226;28;19967;-60
2021/12/24 07:16:43;;;;;;;;;;;;;;;8.63;80.23;100409.00;5048713;28;20585;-60
2021/12/24 07:19:08;;;;;;;;;;;;;;;8.64;80.28;100405.13;5044667;28;19921;-60
2021/12/24 07:21:36;;;;;;;;;;;;;;;8.63;79.80;100418.13;5047659;28;19985;-60
2021/12/24 07:24:02;;;;;;;;;;;;;;;8.64;80.39;100416.19;5052320;28;20377;-59
2021/12/24 07:26:27;;;;;;;;;;;;;;;8.66;80.11;100408.50;5045965;28;19921;-59
2021/12/24 07:28:53;;;;;;;;;;;;;;;8.67;79.56;100418.47;5048670;28;20276;-59
2021/12/24 07:31:18;;;;;;;;;;;;;;;8.66;80.34;100420.41;5049211;28;20240;-59
2021/12/24 07:33:43;;;;;;;;;;;;;;;8.66;80.45;100427.88;5049876;28;19939;-59
2021/12/24 07:36:20;;;;;;;;;;;;;;;8.64;80.08;100419.81;5044018;28;19920;-60
2021/12/24 07:38:45;;;;;;;;;;;;;;;8.65;79.66;100428.97;5054937;28;19924;-59
2021/12/24 07:41:11;;;;;;;;;;;;;;;8.66;80.18;100431.47;5052596;28;19920;-59
2021/12/24 07:43:37;;;;;;;;;;;;;;;8.64;80.35;100436.41;5053833;28;19924;-59
2021/12/24 07:46:02;;;;;;;;;;;;;;;8.65;79.42;100440.03;5054099;28;20003;-59
2021/12/24 07:48:29;;;;;;;;;;;;;;;8.64;80.37;100441.09;5052995;28;19921;-60
2021/12/24 07:53:20;;;;;;;;;;;;;;;8.61;79.74;100436.94;5053148;28;20034;-60
2021/12/24 07:55:46;;;;;;;;;;;;;;;8.59;80.12;100431.63;5049336;28;19959;-61
2021/12/24 07:58:14;;;;;;;;;;;;;;;8.59;80.03;100420.56;5052920;28;19966;-61
2021/12/24 08:00:40;;;;;;;;;;;;;;;8.61;80.10;100420.34;5049868;28;19920;-61
2021/12/24 08:03:05;;;;;;;;;;;;;;;8.60;79.73;100425.00;5053203;28;20015;-61
2021/12/24 08:05:33;;;;;;;;;;;;;;;8.62;80.04;100422.00;5052800;28;20344;-61
2021/12/24 08:08:10;;;;;;;;;;;;;;;8.60;80.07;100419.47;5052673;28;20011;-62
2021/12/24 08:10:37;;;;;;;;;;;;;;;8.76;80.80;100423.34;5046994;28;19921;-61
2021/12/24 08:13:03;;;;;;;;;;;;;;;9.01;79.97;100413.78;5051360;28;19921;-61
2021/12/24 08:15:28;;;;;;;;;;;;;;;8.99;79.87;100422.31;5050829;28;19920;-59
2021/12/24 08:17:53;;;;;;;;;;;;;;;8.95;79.58;100426.69;5052656;28;19925;-60
2021/12/24 08:20:23;;;;;;;;;;;;;;;8.90;79.82;100428.53;5054339;28;19974;-60
2021/12/24 08:22:52;;;;;;;;;;;;;;;8.85;79.39;100427.38;5054346;28;19934;-60
2021/12/24 08:25:18;;;;;;;;;;;;;;;8.82;79.32;100430.63;5052367;28;20403;-60
2021/12/24 08:27:44;;;;;;;;;;;;;;;8.81;79.23;100439.19;5053186;28;19952;-60
2021/12/24 08:30:09;;;;;;;;;;;;;;;8.78;79.52;100429.47;5051103;28;19924;-60
2021/12/24 08:32:38;;;;;;;;;;;;;;;8.78;79.09;100435.00;5039203;28;19936;-60
2021/12/24 08:35:05;;;;;;;;;;;;;;;8.77;78.77;100424.19;5053895;28;19917;-60
2021/12/24 08:37:31;;;;;;;;;;;;;;;8.76;79.70;100420.59;5052804;28;19932;-61
2021/12/24 08:39:56;;;;;;;;;;;;;;;8.73;79.46;100423.03;5045447;28;19925;-60
2021/12/24 08:42:24;;;;;;;;;;;;;;;8.71;79.62;100412.19;5051534;28;19928;-60
2021/12/24 08:44:49;;;;;;;;;;;;;;;8.72;79.66;100415.78;5053556;28;19963;-60
2021/12/24 08:47:14;;;;;;;;;;;;;;;8.75;79.20;100413.34;5045200;28;19921;-60
2021/12/24 08:49:40;;;;;;;;;;;;;;;8.76;79.12;100416.97;5051159;28;20031;-60
2021/12/24 08:52:05;;;;;;;;;;;;;;;8.77;79.63;100422.25;5053844;28;20406;-60
2021/12/24 08:54:30;;;;;;;;;;;;;;;8.78;78.69;100414.78;5053899;28;19939;-60
2021/12/24 08:57:02;;;;;;;;;;;;;;;8.79;78.98;100416.47;5049517;28;19932;-59
2021/12/24 08:59:27;;;;;;;;;;;;;;;8.78;79.35;100420.31;5047361;28;19921;-60
2021/12/24 09:01:53;;;;;;;;;;;;;;;8.76;79.33;100412.28;5045569;28;19920;-62
2021/12/24 09:04:18;;;;;;;;;;;;;;;8.76;79.37;100412.28;5046542;28;20003;-61
2021/12/24 09:06:43;;;;;;;;;;;;;;;8.77;79.28;100415.88;5052816;28;20292;-61
2021/12/24 09:09:10;;;;;;;;;;;;;;;8.79;79.50;100413.69;5049037;28;19924;-62
2021/12/24 09:11:36;;;;;;;;;;;;;;;8.80;79.23;100413.47;5050970;28;19921;-62
2021/12/24 09:14:01;;;;;;;;;;;;;;;8.81;79.06;100414.28;5051211;28;19928;-61
2021/12/24 09:16:26;;;;;;;;;;;;;;;8.80;79.12;100410.69;5052750;28;19924;-62
2021/12/24 09:18:59;;;;;;;;;;;;;;;8.81;79.19;100415.13;5047756;28;20364;-61
2021/12/24 09:21:25;;;;;;;;;;;;;;;8.83;79.38;100420.41;5043869;28;19932;-63
2021/12/24 09:23:50;;;;;;;;;;;;;;;8.83;79.28;100401.03;5052136;28;20609;-62
2021/12/24 09:26:25;;;;;;;;;;;;;;;8.85;79.23;100409.94;5047234;28;19975;-61
2021/12/24 09:28:50;;;;;;;;;;;;;;;8.87;78.83;100409.66;5052744;28;20300;-59
2021/12/24 09:31:15;;;;;;;;;;;;;;;8.86;79.61;100414.38;5050681;28;19924;-59
2021/12/24 09:33:40;;;;;;;;;;;;;;;8.85;78.99;100415.47;5052204;28;19916;-59
2021/12/24 09:36:06;;;;;;;;;;;;;;;8.85;79.27;100410.75;5054002;28;20407;-60
2021/12/24 09:38:34;;;;;;;;;;;;;;;8.85;79.11;100412.69;5048056;28;19916;-60
2021/12/24 09:41:00;;;;;;;;;;;;;;;8.85;79.27;100418.22;5042187;28;19921;-61
2021/12/24 09:43:25;;;;;;;;;;;;;;;8.87;79.19;100417.97;5053224;28;20308;-60
2021/12/24 09:45:50;;;;;;;;;;;;;;;8.88;79.40;100412.16;5053413;28;19920;-60
2021/12/24 09:48:15;;;;;;;;;;;;;;;8.86;79.23;100414.38;5052040;28;20296;-60
2021/12/24 09:50:43;;;;;;;;;;;;;;;8.87;79.51;100410.50;5052599;28;19921;-60
2021/12/24 09:53:09;;;;;;;;;;;;;;;8.87;78.99;100410.50;5048774;28;19921;-60
2021/12/24 09:55:34;;;;;;;;;;;;;;;8.90;79.11;100411.94;5046650;28;19917;-60
2021/12/24 09:57:59;;;;;;;;;;;;;;;8.91;79.71;100411.66;5045792;28;20261;-59
2021/12/24 10:00:25;;;;;;;;;;;;;;;8.90;79.13;100411.94;5051274;28;19920;-59
2021/12/24 10:02:52;;;;;;;;;;;;;;;8.91;78.76;100403.38;5050790;28;19928;-59
2021/12/24 10:05:31;;;;;;;;;;;;;;;8.92;79.52;100410.59;5050063;28;19921;-60
2021/12/24 10:08:01;;;;;;;;;;;;;;;8.92;79.33;100405.06;5050806;28;19964;-59
2021/12/24 10:10:29;;;;;;;;;;;;;;;8.93;79.21;100406.72;5051112;28;19970;-60
2021/12/24 10:12:55;;;;;;;;;;;;;;;8.93;79.25;100406.72;5048800;28;19921;-60
2021/12/24 10:15:20;;;;;;;;;;;;;;;8.95;79.40;100412.00;5049061;28;20391;-60
2021/12/24 10:17:48;;;;;;;;;;;;;;;8.93;79.40;100403.97;5050518;28;19944;-60
2021/12/24 10:20:14;;;;;;;;;;;;;;;8.95;79.35;100412.00;5051136;28;19931;-60
2021/12/24 10:22:51;;;;;;;;;;;;;;;8.97;78.76;100407.06;5050062;28;20380;-60
2021/12/24 10:25:17;;;;;;;;;;;;;;;8.96;79.08;100417.31;5044507;28;19921;-60
2021/12/24 10:27:42;;;;;;;;;;;;;;;8.97;79.46;100407.91;5044208;28;19928;-65
2021/12/24 10:30:14;;;;;;;;;;;;;;;9.00;79.17;100412.06;5045529;28;19925;-61
2021/12/24 10:32:39;;;;;;;;;;;;;;;9.00;79.31;100401.88;5049918;28;20433;-61
2021/12/24 10:35:16;;;;;;;;;;;;;;;9.00;79.56;100401.00;5046767;28;19921;-61
2021/12/24 10:37:41;;;;;;;;;;;;;;;9.01;78.65;100397.16;5050701;28;19971;-60
2021/12/24 10:40:08;;;;;;;;;;;;;;;9.02;78.98;100394.13;5050538;28;20343;-61
2021/12/24 10:42:38;;;;;;;;;;;;;;;9.03;79.07;100390.25;5049040;28;19921;-60
2021/12/24 10:45:06;;;;;;;;;;;;;;;9.04;79.02;100400.25;5050016;28;19958;-61
2021/12/24 10:47:35;;;;;;;;;;;;;;;9.06;78.74;100400.84;5051245;28;19929;-60
2021/12/24 10:55:11;;;;;;;;;;;;;;;9.13;78.97;100385.97;5044074;28;19921;-62
2021/12/24 10:57:38;;;;;;;;;;;;;;;9.14;79.06;100387.66;5039228;28;20485;-62
2021/12/24 11:00:20;;;;;;;;;;;;;;;9.14;78.83;100379.34;5051327;28;20306;-62
2021/12/24 11:02:54;;;;;;;;;;;;;;;9.14;79.19;100379.34;5056001;28;19929;-62
2021/12/24 11:05:23;;;;;;;;;;;;;;;9.10;79.25;100382.63;5040531;28;19970;-61
2021/12/24 11:07:50;;;;;;;;;;;;;;;9.09;79.74;100377.34;5048617;28;19933;-60
2021/12/24 11:10:16;;;;;;;;;;;;;;;9.09;79.49;100380.94;5039189;28;19921;-62
2021/12/24 11:12:42;;;;;;;;;;;;;;;9.07;79.36;100385.06;5044291;28;19921;-61
2021/12/24 11:15:27;;;;;;;;;;;;;;;9.05;79.58;100377.03;5052594;28;22265;-61
2021/12/24 11:17:54;;;;;;;;;;;;;;;9.06;79.15;100377.84;5045453;28;19928;-60
2021/12/24 11:20:20;;;;;;;;;;;;;;;9.08;79.26;100384.81;5041571;28;19924;-60
2021/12/24 11:22:53;;;;;;;;;;;;;;;9.14;79.76;100382.13;5040897;28;20309;-61
2021/12/24 11:25:19;;;;;;;;;;;;;;;9.15;79.05;100381.00;5043343;28;20051;-60
2021/12/24 11:27:44;;;;;;;;;;;;;;;9.18;79.15;100377.75;5046817;28;20003;-61
2021/12/24 11:30:10;;;;;;;;;;;;;;;9.21;78.76;100374.47;5048619;28;19966;-61
2021/12/24 11:32:36;;;;;;;;;;;;;;;9.21;79.10;100386.38;5045558;28;19929;-61
2021/12/24 11:35:01;;;;;;;;;;;;;;;9.22;78.86;100387.22;5042457;28;20264;-62
2021/12/24 11:37:27;;;;;;;;;;;;;;;9.22;79.32;100385.28;5038720;28;19928;-62
2021/12/24 11:39:53;;;;;;;;;;;;;;;9.24;78.91;100387.81;5042627;28;19952;-62
2021/12/24 11:42:20;;;;;;;;;;;;;;;9.24;78.97;100383.09;5048080;28;20359;-63
2021/12/24 11:44:46;;;;;;;;;;;;;;;9.23;79.15;100394.41;5048303;28;19927;-62
2021/12/24 11:47:11;;;;;;;;;;;;;;;9.22;78.80;100395.53;5046053;28;19920;-63
2021/12/24 11:49:39;;;;;;;;;;;;;;;9.24;79.08;100391.41;5045341;28;20323;-62
2021/12/24 11:52:05;;;;;;;;;;;;;;;9.24;79.37;100396.94;5038749;28;19977;-62
2021/12/24 11:54:30;;;;;;;;;;;;;;;9.22;79.12;100392.75;5048058;28;19943;-62
2021/12/24 11:56:56;;;;;;;;;;;;;;;9.21;79.38;100377.22;5045544;28;19929;-62
2021/12/24 11:59:37;;;;;;;;;;;;;;;9.22;79.17;100374.19;5041778;28;19970;-62
2021/12/24 12:02:02;;;;;;;;;;;;;;;9.23;78.86;100377.81;5042695;28;20376;-60
2021/12/24 12:04:28;;;;;;;;;;;;;;;9.25;79.13;100386.72;5041369;28;19925;-61
2021/12/24 12:07:09;;;;;;;;;;;;;;;9.26;79.07;100377.28;5044341;28;20023;-62
2021/12/24 12:09:40;;;;;;;;;;;;;;;9.29;78.76;100376.78;5045134;28;19928;-61
2021/12/24 12:12:06;;;;;;;;;;;;;;;9.28;78.86;100370.41;5047603;28;20404;-61
2021/12/24 12:14:33;;;;;;;;;;;;;;;9.29;79.31;100374.84;5042888;28;19920;-61
2021/12/24 12:17:01;;;;;;;;;;;;;;;9.30;79.03;100375.69;5043797;28;19967;-62
2021/12/24 12:22:12;;;;;;;;;;;;;;;9.32;78.97;100373.50;5052064;28;20323;-60
2021/12/24 12:27:17;;;;;;;;;;;;;;;9.36;78.38;100373.84;5053521;28;20052;-61
2021/12/24 12:29:44;;;;;;;;;;;;;;;9.34;78.81;100363.00;5052288;28;20003;-61
2021/12/24 12:32:12;;;;;;;;;;;;;;;9.34;79.09;100368.53;5050225;28;20078;-60
2021/12/24 12:34:40;;;;;;;;;;;;;;;9.34;79.04;100363.00;5047230;28;20316;-61
2021/12/24 12:37:16;;;;;;;;;;;;;;;9.33;79.37;100364.09;5053573;28;20450;-61
2021/12/24 12:39:41;;;;;;;;;;;;;;;9.35;78.94;100370.22;5054470;28;19974;-61
2021/12/24 12:42:27;;;;;;;;;;;;;;;9.36;79.04;100363.59;5050519;28;20303;-61
2021/12/24 12:44:53;;;;;;;;;;;;;;;9.37;79.08;100364.44;5040935;28;20375;-61
2021/12/24 12:47:18;;;;;;;;;;;;;;;9.39;78.96;100363.06;5052976;28;19920;-61
2021/12/24 12:49:45;;;;;;;;;;;;;;;9.41;78.95;100371.97;5052044;28;19936;-61
2021/12/24 12:52:20;;;;;;;;;;;;;;;9.42;78.91;100365.31;5042684;28;19921;-58
2021/12/24 12:54:47;;;;;;;;;;;;;;;9.44;78.98;100368.69;5052617;28;19921;-59
2021/12/24 12:57:29;;;;;;;;;;;;;;;9.46;79.21;100360.94;5045764;28;19928;-59
2021/12/24 13:00:17;;;;;;;;;;;;;;;9.45;78.73;100362.03;5045278;28;19928;-59
2021/12/24 13:02:58;;;;;;;;;;;;;;;9.44;78.70;100362.31;5033770;28;19921;-59
2021/12/24 13:05:25;;;;;;;;;;;;;;;9.46;78.52;100357.34;5026846;28;19921;-60
2021/12/24 13:07:50;;;;;;;;;;;;;;;9.46;78.86;100357.34;5033797;28;19921;-60
2021/12/24 13:10:17;;;;;;;;;;;;;;;9.49;79.05;100363.19;5024287;28;19929;-60
2021/12/24 13:12:42;;;;;;;;;;;;;;;9.49;79.10;100360.44;5028597;28;20442;-60
2021/12/24 13:15:15;;;;;;;;;;;;;;;9.50;78.92;100352.94;5031766;28;20004;-61
2021/12/24 13:17:44;;;;;;;;;;;;;;;9.51;78.94;100366.56;5031207;28;19921;-60
2021/12/24 13:20:33;;;;;;;;;;;;;;;9.52;78.83;100354.38;5029623;28;19925;-60
2021/12/24 13:22:55;;;;;;;;;;;;;;;9.53;78.52;100353.28;5026383;28;19925;-60
2021/12/24 13:25:21;;;;;;;;;;;;;;;9.54;78.70;100363.25;5030213;28;19975;-61
2021/12/24 13:27:51;;;;;;;;;;;;;;;9.54;78.74;100345.78;5025327;28;20011;-61
2021/12/24 13:30:17;;;;;;;;;;;;;;;9.54;78.56;100345.78;5030031;28;19936;-61
2021/12/24 13:32:45;;;;;;;;;;;;;;;9.53;78.54;100344.97;5026925;28;19921;-61
2021/12/24 13:35:10;;;;;;;;;;;;;;;9.54;78.59;100346.63;5027557;28;20323;-61
2021/12/24 13:37:36;;;;;;;;;;;;;;;9.56;79.22;100341.69;5027288;28;19929;-61
2021/12/24 13:40:01;;;;;;;;;;;;;;;9.63;78.69;100343.41;5030505;28;20036;-61
2021/12/24 13:42:27;;;;;;;;;;;;;;;9.66;78.58;100338.19;5028449;28;19936;-60
2021/12/24 13:45:04;;;;;;;;;;;;;;;9.67;78.98;100333.47;5030000;28;19921;-61
2021/12/24 13:47:51;;;;;;;;;;;;;;;9.66;78.30;100327.09;5022707;28;19928;-60
2021/12/24 13:55:32;;;;;;;;;;;;;;;9.63;78.45;100341.50;5032191;28;20032;-60
2021/12/24 13:57:59;;;;;;;;;;;;;;;9.62;78.33;100348.09;5033561;28;19917;-61
2021/12/24 14:00:25;;;;;;;;;;;;;;;9.61;78.42;100340.06;5043967;28;19928;-61
2021/12/24 14:02:51;;;;;;;;;;;;;;;9.61;78.13;100346.44;5047532;28;19921;-60
2021/12/24 14:05:18;;;;;;;;;;;;;;;9.62;78.34;100348.09;5044998;28;19929;-60
2021/12/24 14:07:46;;;;;;;;;;;;;;;9.67;78.78;100361.19;5047503;28;19925;-61
2021/12/24 14:10:21;;;;;;;;;;;;;;;9.87;79.40;100353.13;5049971;28;20401;-61
2021/12/24 14:12:47;;;;;;;;;;;;;;;10.00;78.50;100349.09;5046114;28;20082;-59
2021/12/24 14:15:14;;;;;;;;;;;;;;;9.96;78.09;100348.78;5050100;28;20419;-60
2021/12/24 14:18:17;;;;;;;;;;;;;;;9.94;77.50;100348.22;5052011;28;19930;-60
2021/12/24 14:23:21;;;;;;;;;;;;;;;10.07;77.75;100342.22;5042321;28;20292;-62
2021/12/24 14:25:56;;;;;;;;;;;;;;;10.04;77.25;100336.38;5048438;28;19928;-60
2021/12/24 14:28:25;;;;;;;;;;;;;;;10.04;77.64;100317.78;5045439;28;20542;-61
2021/12/24 14:31:03;;;;;;;;;;;;;;;10.05;77.45;100338.03;5051068;28;19981;-61
2021/12/24 14:33:32;;;;;;;;;;;;;;;10.03;77.23;100334.72;5045950;28;19943;-62
2021/12/24 14:35:58;;;;;;;;;;;;;;;9.97;77.14;100322.72;5050779;28;19940;-61
2021/12/24 14:38:24;;;;;;;;;;;;;;;9.92;77.11;100325.44;5049414;28;19928;-62
2021/12/24 14:40:56;;;;;;;;;;;;;;;9.88;77.33;100329.00;5037792;28;19925;-64
2021/12/24 14:43:22;;;;;;;;;;;;;;;9.82;77.16;100330.88;5047642;28;19920;-63
2021/12/24 14:45:49;;;;;;;;;;;;;;;9.76;77.18;100327.22;5050361;28;19932;-64